This is the latest recevied weather packets stored in our database for station/object OE-11073. If no packets are shown the sender has not sent any weather packets the latest 10 day(s).
| Time | Temp. | Humidity | Pressure | Rain* | Wind** | Luminosity | Snow |
|---|---|---|---|---|---|---|---|
| 1787735110 | 18.33° C | 74% | - | 0 mm | - | 650 W/m² | - |
| 1787733683 | 17.78° C | 76% | - | 0 mm | - | 375 W/m² | - |
| 1787733310 | 17.78° C | 75% | - | 0 mm | - | 666 W/m² | - |
| 1787732709 | 17.22° C | 79% | - | 0 mm | - | 321 W/m² | - |
| 1787731883 | 17.22° C | 78% | - | 0 mm | - | 451 W/m² | - |
| 1787731510 | 16.67° C | 79% | - | 0 mm | - | 344 W/m² | - |
| 1787730910 | 16.11° C | 81% | - | 0 mm | - | 222 W/m² | - |
| 1787730083 | 16.11° C | 79% | - | 0 mm | - | 260 W/m² | - |
| 1787729710 | 15.56° C | 83% | - | 0 mm | - | 207 W/m² | - |
| 1787729110 | 15.56° C | 85% | - | 0 mm | - | 191 W/m² | - |
| 1787728282 | 15.56° C | 84% | - | 0 mm | - | 153 W/m² | - |
| 1787727910 | 15.56° C | 87% | - | 0 mm | - | 168 W/m² | - |
| 1787727310 | 15° C | 88% | - | 0 mm | - | 115 W/m² | - |
| 1787726721 | 15° C | 89% | - | 0 mm | - | 92 W/m² | - |
| 1787726110 | 14.44° C | 89% | - | 0 mm | - | 84 W/m² | - |
| 1787725510 | 14.44° C | 88% | - | 0 mm | - | 77 W/m² | - |
| 1787724682 | 14.44° C | 89% | - | 0 mm | - | 46 W/m² | - |
| 1787724310 | 14.44° C | 90% | - | 0 mm | - | 46 W/m² | - |
| 1787723709 | 14.44° C | 91% | - | 0 mm | - | 31 W/m² | - |
| 1787722882 | 14.44° C | 91% | - | 0 mm | - | 23 W/m² | - |
| 1787722510 | 14.44° C | 89% | - | 0 mm | - | 15 W/m² | - |
| 1787721910 | 14.44° C | 90% | - | 0 mm | - | 23 W/m² | - |
| 1787721082 | 14.44° C | 91% | - | 0 mm | - | 15 W/m² | - |
| 1787720710 | 14.44° C | 94% | - | 0 mm | - | 8 W/m² | - |
| 1787720110 | 14.44° C | 91% | - | 0 mm | - | 8 W/m² | - |
* Rain latest hour (hover to see other rain measurements)
** Current wind speed in m/s (hover to see current wind gust speed)